sensor_id;sensor_type;location;lat;lon;timestamp;temperature;humidity
29813;DHT22;16707;48.106;11.548;2023-11-18T00:00:07;4.90;99.90
29813;DHT22;16707;48.106;11.548;2023-11-18T00:02:38;4.90;99.90
29813;DHT22;16707;48.106;11.548;2023-11-18T00:05:08;5.00;99.90
29813;DHT22;16707;48.106;11.548;2023-11-18T00:07:34;5.00;99.90
29813;DHT22;16707;48.106;11.548;2023-11-18T00:10:01;5.00;99.90
29813;DHT22;16707;48.106;11.548;2023-11-18T00:12:29;5.00;99.90
29813;DHT22;16707;48.106;11.548;2023-11-18T00:14:57;4.90;99.90
29813;DHT22;16707;48.106;11.548;2023-11-18T00:17:24;4.90;99.90
29813;DHT22;16707;48.106;11.548;2023-11-18T00:19:50;5.00;99.90
29813;DHT22;16707;48.106;11.548;2023-11-18T00:22:19;5.00;99.90
29813;DHT22;16707;48.106;11.548;2023-11-18T00:24:45;5.00;99.90
29813;DHT22;16707;48.106;11.548;2023-11-18T00:27:12;5.00;99.90
29813;DHT22;16707;48.106;11.548;2023-11-18T00:29:40;5.10;99.90
29813;DHT22;16707;48.106;11.548;2023-11-18T00:32:12;5.10;99.90
29813;DHT22;16707;48.106;11.548;2023-11-18T00:34:38;5.10;99.90
29813;DHT22;16707;48.106;11.548;2023-11-18T00:37:05;5.10;99.90
29813;DHT22;16707;48.106;11.548;2023-11-18T00:39:32;5.10;99.90
29813;DHT22;16707;48.106;11.548;2023-11-18T00:41:59;5.10;99.90
29813;DHT22;16707;48.106;11.548;2023-11-18T00:44:25;5.00;99.90
29813;DHT22;16707;48.106;11.548;2023-11-18T00:46:52;5.00;99.90
29813;DHT22;16707;48.106;11.548;2023-11-18T00:49:20;5.00;99.90
29813;DHT22;16707;48.106;11.548;2023-11-18T00:51:47;5.00;99.90
29813;DHT22;16707;48.106;11.548;2023-11-18T00:54:14;5.10;99.90
29813;DHT22;16707;48.106;11.548;2023-11-18T00:56:41;5.10;99.90
29813;DHT22;16707;48.106;11.548;2023-11-18T00:59:07;5.20;99.90
29813;DHT22;16707;48.106;11.548;2023-11-18T01:01:34;5.10;99.90
29813;DHT22;16707;48.106;11.548;2023-11-18T01:04:02;5.10;99.90
29813;DHT22;16707;48.106;11.548;2023-11-18T01:06:30;5.10;99.90
29813;DHT22;16707;48.106;11.548;2023-11-18T01:08:57;5.10;99.90
29813;DHT22;16707;48.106;11.548;2023-11-18T01:11:24;5.20;99.90
29813;DHT22;16707;48.106;11.548;2023-11-18T01:13:51;5.10;99.90
29813;DHT22;16707;48.106;11.548;2023-11-18T01:16:20;5.20;99.90
29813;DHT22;16707;48.106;11.548;2023-11-18T01:18:46;5.20;99.90
29813;DHT22;16707;48.106;11.548;2023-11-18T01:21:13;5.20;99.90
29813;DHT22;16707;48.106;11.548;2023-11-18T01:23:44;5.20;99.90
29813;DHT22;16707;48.106;11.548;2023-11-18T01:26:11;5.30;99.90
29813;DHT22;16707;48.106;11.548;2023-11-18T01:28:38;5.40;99.90
29813;DHT22;16707;48.106;11.548;2023-11-18T01:31:07;5.40;99.90
29813;DHT22;16707;48.106;11.548;2023-11-18T01:33:35;5.40;99.90
29813;DHT22;16707;48.106;11.548;2023-11-18T01:36:02;5.40;99.90
29813;DHT22;16707;48.106;11.548;2023-11-18T01:38:29;5.40;99.90
29813;DHT22;16707;48.106;11.548;2023-11-18T01:40:58;5.30;99.90
29813;DHT22;16707;48.106;11.548;2023-11-18T01:43:26;5.40;99.90
29813;DHT22;16707;48.106;11.548;2023-11-18T01:46:02;5.50;99.90
29813;DHT22;16707;48.106;11.548;2023-11-18T01:48:36;5.50;99.90
29813;DHT22;16707;48.106;11.548;2023-11-18T01:51:04;5.40;99.90
29813;DHT22;16707;48.106;11.548;2023-11-18T01:53:31;5.40;99.90
29813;DHT22;16707;48.106;11.548;2023-11-18T01:56:00;5.50;99.90
29813;DHT22;16707;48.106;11.548;2023-11-18T01:58:27;5.50;99.90
29813;DHT22;16707;48.106;11.548;2023-11-18T02:00:56;5.50;99.90
29813;DHT22;16707;48.106;11.548;2023-11-18T02:03:23;5.60;99.90
29813;DHT22;16707;48.106;11.548;2023-11-18T02:05:52;5.60;99.90
29813;DHT22;16707;48.106;11.548;2023-11-18T02:08:19;5.50;99.90
29813;DHT22;16707;48.106;11.548;2023-11-18T02:10:46;5.50;99.90
29813;DHT22;16707;48.106;11.548;2023-11-18T02:13:21;5.60;99.90
29813;DHT22;16707;48.106;11.548;2023-11-18T02:15:50;5.50;99.90
29813;DHT22;16707;48.106;11.548;2023-11-18T02:18:19;5.50;99.90
29813;DHT22;16707;48.106;11.548;2023-11-18T02:20:47;5.50;99.90
29813;DHT22;16707;48.106;11.548;2023-11-18T02:23:14;5.50;99.90
29813;DHT22;16707;48.106;11.548;2023-11-18T02:25:44;5.60;99.90
29813;DHT22;16707;48.106;11.548;2023-11-18T02:28:13;5.60;99.90
29813;DHT22;16707;48.106;11.548;2023-11-18T02:30:40;5.50;99.90
29813;DHT22;16707;48.106;11.548;2023-11-18T02:33:10;5.40;99.90
29813;DHT22;16707;48.106;11.548;2023-11-18T02:35:41;5.50;99.90
29813;DHT22;16707;48.106;11.548;2023-11-18T02:38:17;5.50;99.90
29813;DHT22;16707;48.106;11.548;2023-11-18T02:40:46;5.60;99.90
29813;DHT22;16707;48.106;11.548;2023-11-18T02:43:13;5.50;99.90
29813;DHT22;16707;48.106;11.548;2023-11-18T02:45:40;5.60;99.90
29813;DHT22;16707;48.106;11.548;2023-11-18T02:48:07;5.60;99.90
29813;DHT22;16707;48.106;11.548;2023-11-18T02:50:34;5.60;99.90
29813;DHT22;16707;48.106;11.548;2023-11-18T02:53:01;5.70;99.90
29813;DHT22;16707;48.106;11.548;2023-11-18T02:55:28;5.60;99.90
29813;DHT22;16707;48.106;11.548;2023-11-18T02:57:57;5.60;99.90
29813;DHT22;16707;48.106;11.548;2023-11-18T03:00:24;5.60;99.90
29813;DHT22;16707;48.106;11.548;2023-11-18T03:02:50;5.50;99.90
29813;DHT22;16707;48.106;11.548;2023-11-18T03:05:17;5.50;99.90
29813;DHT22;16707;48.106;11.548;2023-11-18T03:07:44;5.50;99.90
29813;DHT22;16707;48.106;11.548;2023-11-18T03:10:14;5.40;99.90
29813;DHT22;16707;48.106;11.548;2023-11-18T03:12:46;5.40;99.90
29813;DHT22;16707;48.106;11.548;2023-11-18T03:15:14;5.50;99.90
29813;DHT22;16707;48.106;11.548;2023-11-18T03:17:43;5.50;99.90
29813;DHT22;16707;48.106;11.548;2023-11-18T03:20:10;5.50;99.90
29813;DHT22;16707;48.106;11.548;2023-11-18T03:22:40;5.40;99.90
29813;DHT22;16707;48.106;11.548;2023-11-18T03:25:07;5.40;99.90
29813;DHT22;16707;48.106;11.548;2023-11-18T03:27:34;5.40;99.90
29813;DHT22;16707;48.106;11.548;2023-11-18T03:30:01;5.50;99.90
29813;DHT22;16707;48.106;11.548;2023-11-18T03:32:29;5.40;99.90
29813;DHT22;16707;48.106;11.548;2023-11-18T03:34:56;5.40;99.90
29813;DHT22;16707;48.106;11.548;2023-11-18T03:37:24;5.40;99.90
29813;DHT22;16707;48.106;11.548;2023-11-18T03:39:51;5.40;99.90
29813;DHT22;16707;48.106;11.548;2023-11-18T03:42:18;5.40;99.90
29813;DHT22;16707;48.106;11.548;2023-11-18T03:44:45;5.40;99.90
29813;DHT22;16707;48.106;11.548;2023-11-18T03:47:12;5.30;99.90
29813;DHT22;16707;48.106;11.548;2023-11-18T03:49:40;5.40;99.90
29813;DHT22;16707;48.106;11.548;2023-11-18T03:52:07;5.40;99.90
29813;DHT22;16707;48.106;11.548;2023-11-18T03:54:34;5.30;99.90
29813;DHT22;16707;48.106;11.548;2023-11-18T03:57:01;5.40;99.90
29813;DHT22;16707;48.106;11.548;2023-11-18T03:59:28;5.30;99.90
29813;DHT22;16707;48.106;11.548;2023-11-18T04:01:55;5.30;99.90
29813;DHT22;16707;48.106;11.548;2023-11-18T04:04:21;5.40;99.90
29813;DHT22;16707;48.106;11.548;2023-11-18T04:06:49;5.40;99.90
29813;DHT22;16707;48.106;11.548;2023-11-18T04:09:16;5.50;99.90
29813;DHT22;16707;48.106;11.548;2023-11-18T04:11:43;5.40;99.90
29813;DHT22;16707;48.106;11.548;2023-11-18T04:14:10;5.50;99.90
29813;DHT22;16707;48.106;11.548;2023-11-18T04:16:37;5.30;99.90
29813;DHT22;16707;48.106;11.548;2023-11-18T04:19:04;5.30;99.90
29813;DHT22;16707;48.106;11.548;2023-11-18T04:21:31;5.30;99.90
29813;DHT22;16707;48.106;11.548;2023-11-18T04:23:59;5.30;99.90
29813;DHT22;16707;48.106;11.548;2023-11-18T04:26:26;5.30;99.90
29813;DHT22;16707;48.106;11.548;2023-11-18T04:28:53;5.40;99.90
29813;DHT22;16707;48.106;11.548;2023-11-18T04:31:20;5.40;99.90
29813;DHT22;16707;48.106;11.548;2023-11-18T04:33:47;5.40;99.90
29813;DHT22;16707;48.106;11.548;2023-11-18T04:36:14;5.50;99.90
29813;DHT22;16707;48.106;11.548;2023-11-18T04:38:41;5.30;99.90
29813;DHT22;16707;48.106;11.548;2023-11-18T04:41:10;5.30;99.90
29813;DHT22;16707;48.106;11.548;2023-11-18T04:43:36;5.30;99.90
29813;DHT22;16707;48.106;11.548;2023-11-18T04:46:05;5.20;99.90
29813;DHT22;16707;48.106;11.548;2023-11-18T04:48:36;5.30;99.90
29813;DHT22;16707;48.106;11.548;2023-11-18T04:51:02;5.30;99.90
29813;DHT22;16707;48.106;11.548;2023-11-18T04:53:29;5.30;99.90
29813;DHT22;16707;48.106;11.548;2023-11-18T04:55:57;5.30;99.90
29813;DHT22;16707;48.106;11.548;2023-11-18T04:58:25;5.30;99.90
29813;DHT22;16707;48.106;11.548;2023-11-18T05:00:52;5.30;99.90
29813;DHT22;16707;48.106;11.548;2023-11-18T05:03:19;5.30;99.90
29813;DHT22;16707;48.106;11.548;2023-11-18T05:05:46;5.40;99.90
29813;DHT22;16707;48.106;11.548;2023-11-18T05:08:20;5.40;99.90
29813;DHT22;16707;48.106;11.548;2023-11-18T05:10:47;5.30;99.90
29813;DHT22;16707;48.106;11.548;2023-11-18T05:13:14;5.30;99.90
29813;DHT22;16707;48.106;11.548;2023-11-18T05:15:43;5.30;99.90
29813;DHT22;16707;48.106;11.548;2023-11-18T05:18:11;5.30;99.90
29813;DHT22;16707;48.106;11.548;2023-11-18T05:20:40;5.40;99.90
29813;DHT22;16707;48.106;11.548;2023-11-18T05:23:06;5.30;99.90
29813;DHT22;16707;48.106;11.548;2023-11-18T05:25:35;5.30;99.90
29813;DHT22;16707;48.106;11.548;2023-11-18T05:28:02;5.30;99.90
29813;DHT22;16707;48.106;11.548;2023-11-18T05:30:29;5.20;99.90
29813;DHT22;16707;48.106;11.548;2023-11-18T05:32:57;5.20;99.90
29813;DHT22;16707;48.106;11.548;2023-11-18T05:35:24;5.20;99.90
29813;DHT22;16707;48.106;11.548;2023-11-18T05:37:53;5.20;99.90
29813;DHT22;16707;48.106;11.548;2023-11-18T05:40:20;5.20;99.90
29813;DHT22;16707;48.106;11.548;2023-11-18T05:42:48;5.20;99.90
29813;DHT22;16707;48.106;11.548;2023-11-18T05:45:19;5.20;99.90
29813;DHT22;16707;48.106;11.548;2023-11-18T05:47:54;5.20;99.90
29813;DHT22;16707;48.106;11.548;2023-11-18T05:50:23;5.20;99.90
29813;DHT22;16707;48.106;11.548;2023-11-18T05:52:51;5.20;99.90
29813;DHT22;16707;48.106;11.548;2023-11-18T05:55:18;5.20;99.90
29813;DHT22;16707;48.106;11.548;2023-11-18T05:57:45;5.20;99.90
29813;DHT22;16707;48.106;11.548;2023-11-18T06:00:13;5.20;99.90
29813;DHT22;16707;48.106;11.548;2023-11-18T06:02:41;5.20;99.90
29813;DHT22;16707;48.106;11.548;2023-11-18T06:05:08;5.30;99.90
29813;DHT22;16707;48.106;11.548;2023-11-18T06:07:36;5.30;99.90
29813;DHT22;16707;48.106;11.548;2023-11-18T06:10:05;5.30;99.90
29813;DHT22;16707;48.106;11.548;2023-11-18T06:12:32;5.40;99.90
29813;DHT22;16707;48.106;11.548;2023-11-18T06:14:59;5.40;99.90
29813;DHT22;16707;48.106;11.548;2023-11-18T06:17:26;5.40;99.90
29813;DHT22;16707;48.106;11.548;2023-11-18T06:19:53;5.50;99.90
29813;DHT22;16707;48.106;11.548;2023-11-18T06:22:20;5.40;99.90
29813;DHT22;16707;48.106;11.548;2023-11-18T06:24:48;5.40;99.90
29813;DHT22;16707;48.106;11.548;2023-11-18T06:27:15;5.30;99.90
29813;DHT22;16707;48.106;11.548;2023-11-18T06:29:43;5.40;99.90
29813;DHT22;16707;48.106;11.548;2023-11-18T06:32:10;5.30;99.90
29813;DHT22;16707;48.106;11.548;2023-11-18T06:34:37;5.30;99.90
29813;DHT22;16707;48.106;11.548;2023-11-18T06:37:04;5.30;99.90
29813;DHT22;16707;48.106;11.548;2023-11-18T06:39:31;5.40;99.90
29813;DHT22;16707;48.106;11.548;2023-11-18T06:42:01;5.80;99.90
29813;DHT22;16707;48.106;11.548;2023-11-18T06:44:30;6.00;99.90
29813;DHT22;16707;48.106;11.548;2023-11-18T06:46:57;5.90;99.90
29813;DHT22;16707;48.106;11.548;2023-11-18T06:49:24;5.70;99.90
29813;DHT22;16707;48.106;11.548;2023-11-18T06:51:50;5.60;99.90
29813;DHT22;16707;48.106;11.548;2023-11-18T06:54:18;5.60;99.90
29813;DHT22;16707;48.106;11.548;2023-11-18T06:56:44;5.60;99.90
29813;DHT22;16707;48.106;11.548;2023-11-18T06:59:14;5.60;99.90
29813;DHT22;16707;48.106;11.548;2023-11-18T07:01:43;5.60;99.90
29813;DHT22;16707;48.106;11.548;2023-11-18T07:04:16;5.60;99.90
29813;DHT22;16707;48.106;11.548;2023-11-18T07:06:47;5.70;99.90
29813;DHT22;16707;48.106;11.548;2023-11-18T07:09:19;5.70;99.90
29813;DHT22;16707;48.106;11.548;2023-11-18T07:11:48;5.70;99.90
29813;DHT22;16707;48.106;11.548;2023-11-18T07:14:21;5.70;99.90
29813;DHT22;16707;48.106;11.548;2023-11-18T07:16:51;5.70;99.90
29813;DHT22;16707;48.106;11.548;2023-11-18T07:19:18;5.80;99.90
29813;DHT22;16707;48.106;11.548;2023-11-18T07:21:49;5.80;99.90
29813;DHT22;16707;48.106;11.548;2023-11-18T07:24:16;6.10;99.90
29813;DHT22;16707;48.106;11.548;2023-11-18T07:26:43;6.00;99.90
29813;DHT22;16707;48.106;11.548;2023-11-18T07:29:13;6.00;99.90
29813;DHT22;16707;48.106;11.548;2023-11-18T07:31:41;6.00;99.90
29813;DHT22;16707;48.106;11.548;2023-11-18T07:34:08;6.10;99.90
29813;DHT22;16707;48.106;11.548;2023-11-18T07:36:35;6.10;99.90
29813;DHT22;16707;48.106;11.548;2023-11-18T07:39:01;6.10;99.90
29813;DHT22;16707;48.106;11.548;2023-11-18T07:41:30;6.30;99.90
29813;DHT22;16707;48.106;11.548;2023-11-18T07:46:41;6.50;99.90
29813;DHT22;16707;48.106;11.548;2023-11-18T07:49:14;6.50;99.90
29813;DHT22;16707;48.106;11.548;2023-11-18T07:51:41;6.70;99.90
29813;DHT22;16707;48.106;11.548;2023-11-18T07:54:10;6.60;99.90
29813;DHT22;16707;48.106;11.548;2023-11-18T07:56:37;6.70;99.90
29813;DHT22;16707;48.106;11.548;2023-11-18T07:59:07;6.80;99.90
29813;DHT22;16707;48.106;11.548;2023-11-18T08:01:41;6.90;99.90
29813;DHT22;16707;48.106;11.548;2023-11-18T08:04:09;6.90;99.90
29813;DHT22;16707;48.106;11.548;2023-11-18T08:06:36;7.10;99.90
29813;DHT22;16707;48.106;11.548;2023-11-18T08:09:03;7.20;99.90
29813;DHT22;16707;48.106;11.548;2023-11-18T08:11:29;7.30;99.90
29813;DHT22;16707;48.106;11.548;2023-11-18T08:13:56;7.30;99.90
29813;DHT22;16707;48.106;11.548;2023-11-18T08:16:23;7.50;99.90
29813;DHT22;16707;48.106;11.548;2023-11-18T08:18:51;7.60;99.90
29813;DHT22;16707;48.106;11.548;2023-11-18T08:21:18;7.70;99.90
29813;DHT22;16707;48.106;11.548;2023-11-18T08:23:46;7.60;99.90
29813;DHT22;16707;48.106;11.548;2023-11-18T08:26:12;7.80;99.90
29813;DHT22;16707;48.106;11.548;2023-11-18T08:28:39;7.80;99.90
29813;DHT22;16707;48.106;11.548;2023-11-18T08:31:06;7.90;99.90
29813;DHT22;16707;48.106;11.548;2023-11-18T08:33:34;7.90;99.90
29813;DHT22;16707;48.106;11.548;2023-11-18T08:36:05;8.00;99.90
29813;DHT22;16707;48.106;11.548;2023-11-18T08:38:33;7.90;99.90
29813;DHT22;16707;48.106;11.548;2023-11-18T08:41:00;7.90;99.90
29813;DHT22;16707;48.106;11.548;2023-11-18T08:43:27;7.90;99.90
29813;DHT22;16707;48.106;11.548;2023-11-18T08:45:54;8.00;99.90
29813;DHT22;16707;48.106;11.548;2023-11-18T08:48:21;8.00;99.90
29813;DHT22;16707;48.106;11.548;2023-11-18T08:50:48;8.10;99.90
29813;DHT22;16707;48.106;11.548;2023-11-18T08:53:18;8.20;99.90
29813;DHT22;16707;48.106;11.548;2023-11-18T08:55:51;8.20;99.90
29813;DHT22;16707;48.106;11.548;2023-11-18T08:58:19;8.40;99.90
29813;DHT22;16707;48.106;11.548;2023-11-18T09:00:47;8.60;99.90
29813;DHT22;16707;48.106;11.548;2023-11-18T09:03:18;8.70;99.90
29813;DHT22;16707;48.106;11.548;2023-11-18T09:05:51;8.80;99.90
29813;DHT22;16707;48.106;11.548;2023-11-18T09:08:25;8.60;99.90
29813;DHT22;16707;48.106;11.548;2023-11-18T09:10:52;8.70;99.90
29813;DHT22;16707;48.106;11.548;2023-11-18T09:13:20;8.70;99.90
29813;DHT22;16707;48.106;11.548;2023-11-18T09:15:47;8.70;99.90
29813;DHT22;16707;48.106;11.548;2023-11-18T09:18:14;8.70;99.90
29813;DHT22;16707;48.106;11.548;2023-11-18T09:20:43;8.60;99.90
29813;DHT22;16707;48.106;11.548;2023-11-18T09:23:10;8.50;99.90
29813;DHT22;16707;48.106;11.548;2023-11-18T09:25:40;8.50;99.90
29813;DHT22;16707;48.106;11.548;2023-11-18T09:28:06;8.80;99.90
29813;DHT22;16707;48.106;11.548;2023-11-18T09:30:36;9.00;99.90
29813;DHT22;16707;48.106;11.548;2023-11-18T09:33:07;9.30;99.90
29813;DHT22;16707;48.106;11.548;2023-11-18T09:35:39;9.50;99.90
29813;DHT22;16707;48.106;11.548;2023-11-18T09:38:06;9.60;99.90
29813;DHT22;16707;48.106;11.548;2023-11-18T09:40:33;9.70;99.90
29813;DHT22;16707;48.106;11.548;2023-11-18T09:43:04;10.00;99.90
29813;DHT22;16707;48.106;11.548;2023-11-18T09:45:34;10.30;99.90
29813;DHT22;16707;48.106;11.548;2023-11-18T09:48:01;10.30;99.90
29813;DHT22;16707;48.106;11.548;2023-11-18T09:50:31;10.30;99.90
29813;DHT22;16707;48.106;11.548;2023-11-18T09:52:59;10.00;99.90
29813;DHT22;16707;48.106;11.548;2023-11-18T09:55:33;9.90;99.90
29813;DHT22;16707;48.106;11.548;2023-11-18T09:58:05;9.70;99.90
29813;DHT22;16707;48.106;11.548;2023-11-18T10:00:38;9.90;99.90
29813;DHT22;16707;48.106;11.548;2023-11-18T10:03:07;9.90;99.90
29813;DHT22;16707;48.106;11.548;2023-11-18T10:05:39;9.80;99.90
29813;DHT22;16707;48.106;11.548;2023-11-18T10:08:07;9.70;99.90
29813;DHT22;16707;48.106;11.548;2023-11-18T10:10:34;10.00;99.90
29813;DHT22;16707;48.106;11.548;2023-11-18T10:13:03;10.00;99.90
29813;DHT22;16707;48.106;11.548;2023-11-18T10:15:45;10.10;99.90
29813;DHT22;16707;48.106;11.548;2023-11-18T10:18:13;10.00;99.90
29813;DHT22;16707;48.106;11.548;2023-11-18T10:20:48;9.60;99.90
29813;DHT22;16707;48.106;11.548;2023-11-18T10:23:17;9.50;99.90
29813;DHT22;16707;48.106;11.548;2023-11-18T10:25:46;9.40;99.90
29813;DHT22;16707;48.106;11.548;2023-11-18T10:28:23;9.20;99.90
29813;DHT22;16707;48.106;11.548;2023-11-18T10:30:54;9.00;99.90
29813;DHT22;16707;48.106;11.548;2023-11-18T10:33:23;8.90;99.90
29813;DHT22;16707;48.106;11.548;2023-11-18T10:35:55;8.80;99.90
29813;DHT22;16707;48.106;11.548;2023-11-18T10:38:22;9.00;99.90
29813;DHT22;16707;48.106;11.548;2023-11-18T10:40:52;8.90;99.90
29813;DHT22;16707;48.106;11.548;2023-11-18T10:43:20;8.90;99.90
29813;DHT22;16707;48.106;11.548;2023-11-18T10:45:50;9.00;99.90
29813;DHT22;16707;48.106;11.548;2023-11-18T10:48:19;8.90;99.90
29813;DHT22;16707;48.106;11.548;2023-11-18T10:50:47;8.90;99.90
29813;DHT22;16707;48.106;11.548;2023-11-18T10:53:15;9.00;99.90
29813;DHT22;16707;48.106;11.548;2023-11-18T10:55:43;9.20;99.90
29813;DHT22;16707;48.106;11.548;2023-11-18T10:58:09;9.10;99.90
29813;DHT22;16707;48.106;11.548;2023-11-18T11:00:49;9.30;99.90
29813;DHT22;16707;48.106;11.548;2023-11-18T11:03:20;9.40;99.90
29813;DHT22;16707;48.106;11.548;2023-11-18T11:05:49;9.60;99.90
29813;DHT22;16707;48.106;11.548;2023-11-18T11:08:16;10.10;99.90
29813;DHT22;16707;48.106;11.548;2023-11-18T11:10:42;10.50;99.90
29813;DHT22;16707;48.106;11.548;2023-11-18T11:13:09;11.00;99.90
29813;DHT22;16707;48.106;11.548;2023-11-18T11:15:40;11.00;99.90
29813;DHT22;16707;48.106;11.548;2023-11-18T11:18:08;11.10;97.70
29813;DHT22;16707;48.106;11.548;2023-11-18T11:20:47;11.20;97.90
29813;DHT22;16707;48.106;11.548;2023-11-18T11:23:18;11.40;97.30
29813;DHT22;16707;48.106;11.548;2023-11-18T11:25:50;11.30;95.40
29813;DHT22;16707;48.106;11.548;2023-11-18T11:28:20;11.00;94.70
29813;DHT22;16707;48.106;11.548;2023-11-18T11:30:50;10.70;95.30
29813;DHT22;16707;48.106;11.548;2023-11-18T11:33:31;10.40;97.50
29813;DHT22;16707;48.106;11.548;2023-11-18T11:36:07;10.10;98.70
29813;DHT22;16707;48.106;11.548;2023-11-18T11:38:37;10.00;99.70
29813;DHT22;16707;48.106;11.548;2023-11-18T11:41:04;10.00;99.90
29813;DHT22;16707;48.106;11.548;2023-11-18T11:43:33;9.80;99.90
29813;DHT22;16707;48.106;11.548;2023-11-18T11:46:01;9.80;99.90
29813;DHT22;16707;48.106;11.548;2023-11-18T11:48:32;9.80;99.90
29813;DHT22;16707;48.106;11.548;2023-11-18T11:51:14;9.80;99.90
29813;DHT22;16707;48.106;11.548;2023-11-18T11:53:47;9.90;99.90
29813;DHT22;16707;48.106;11.548;2023-11-18T11:56:17;10.10;99.90
29813;DHT22;16707;48.106;11.548;2023-11-18T11:58:49;10.20;99.40
29813;DHT22;16707;48.106;11.548;2023-11-18T12:01:24;10.20;98.80
29813;DHT22;16707;48.106;11.548;2023-11-18T12:03:56;10.20;98.90
29813;DHT22;16707;48.106;11.548;2023-11-18T12:06:24;10.20;98.20
29813;DHT22;16707;48.106;11.548;2023-11-18T12:08:53;10.30;99.20
29813;DHT22;16707;48.106;11.548;2023-11-18T12:11:20;10.30;99.40
29813;DHT22;16707;48.106;11.548;2023-11-18T12:14:00;10.10;99.60
29813;DHT22;16707;48.106;11.548;2023-11-18T12:19:28;10.30;99.50
29813;DHT22;16707;48.106;11.548;2023-11-18T12:21:57;10.10;99.90
29813;DHT22;16707;48.106;11.548;2023-11-18T12:24:26;10.00;99.80
29813;DHT22;16707;48.106;11.548;2023-11-18T12:26:54;10.10;99.50
29813;DHT22;16707;48.106;11.548;2023-11-18T12:29:30;10.00;98.70
29813;DHT22;16707;48.106;11.548;2023-11-18T12:31:57;9.90;99.40
29813;DHT22;16707;48.106;11.548;2023-11-18T12:34:24;10.00;99.90
29813;DHT22;16707;48.106;11.548;2023-11-18T12:43:00;10.30;99.90
29813;DHT22;16707;48.106;11.548;2023-11-18T12:48:20;10.00;99.90
29813;DHT22;16707;48.106;11.548;2023-11-18T12:50:52;9.70;99.90
29813;DHT22;16707;48.106;11.548;2023-11-18T12:53:21;9.70;99.90
29813;DHT22;16707;48.106;11.548;2023-11-18T12:55:50;9.60;99.90
29813;DHT22;16707;48.106;11.548;2023-11-18T12:58:20;9.50;99.90
29813;DHT22;16707;48.106;11.548;2023-11-18T13:00:48;9.60;99.90
29813;DHT22;16707;48.106;11.548;2023-11-18T13:03:15;9.60;99.90
29813;DHT22;16707;48.106;11.548;2023-11-18T13:05:43;9.60;99.90
29813;DHT22;16707;48.106;11.548;2023-11-18T13:08:10;9.70;99.90
29813;DHT22;16707;48.106;11.548;2023-11-18T13:10:40;9.50;99.90
29813;DHT22;16707;48.106;11.548;2023-11-18T13:13:07;9.60;99.90
29813;DHT22;16707;48.106;11.548;2023-11-18T13:15:39;9.50;99.90
29813;DHT22;16707;48.106;11.548;2023-11-18T13:18:06;9.40;99.90
29813;DHT22;16707;48.106;11.548;2023-11-18T13:20:32;9.40;99.90
29813;DHT22;16707;48.106;11.548;2023-11-18T13:23:01;9.20;99.90
29813;DHT22;16707;48.106;11.548;2023-11-18T13:25:34;9.10;99.90
29813;DHT22;16707;48.106;11.548;2023-11-18T13:28:00;9.00;99.90
29813;DHT22;16707;48.106;11.548;2023-11-18T13:30:28;8.90;99.90
29813;DHT22;16707;48.106;11.548;2023-11-18T13:32:56;8.70;99.90
29813;DHT22;16707;48.106;11.548;2023-11-18T13:35:22;8.50;99.90
29813;DHT22;16707;48.106;11.548;2023-11-18T13:37:49;8.60;99.90
29813;DHT22;16707;48.106;11.548;2023-11-18T13:40:18;8.50;99.90
29813;DHT22;16707;48.106;11.548;2023-11-18T13:42:46;8.30;99.90
29813;DHT22;16707;48.106;11.548;2023-11-18T13:45:13;8.20;99.90
29813;DHT22;16707;48.106;11.548;2023-11-18T13:47:49;8.30;99.90
29813;DHT22;16707;48.106;11.548;2023-11-18T13:50:17;8.30;99.90
29813;DHT22;16707;48.106;11.548;2023-11-18T13:52:44;8.30;99.90
29813;DHT22;16707;48.106;11.548;2023-11-18T13:55:12;8.50;99.90
29813;DHT22;16707;48.106;11.548;2023-11-18T13:57:42;8.60;99.90
29813;DHT22;16707;48.106;11.548;2023-11-18T14:00:09;8.60;99.90
29813;DHT22;16707;48.106;11.548;2023-11-18T14:02:41;8.60;99.90
29813;DHT22;16707;48.106;11.548;2023-11-18T14:05:14;8.70;99.90
29813;DHT22;16707;48.106;11.548;2023-11-18T14:07:43;8.60;99.90
29813;DHT22;16707;48.106;11.548;2023-11-18T14:10:10;8.60;99.90
29813;DHT22;16707;48.106;11.548;2023-11-18T14:12:38;8.50;99.90
29813;DHT22;16707;48.106;11.548;2023-11-18T14:15:05;8.50;99.90
29813;DHT22;16707;48.106;11.548;2023-11-18T14:17:35;8.60;99.90
29813;DHT22;16707;48.106;11.548;2023-11-18T14:20:01;8.70;99.90
29813;DHT22;16707;48.106;11.548;2023-11-18T14:22:28;8.70;99.90
29813;DHT22;16707;48.106;11.548;2023-11-18T14:24:56;8.60;99.90
29813;DHT22;16707;48.106;11.548;2023-11-18T14:27:23;8.60;99.90
29813;DHT22;16707;48.106;11.548;2023-11-18T14:29:50;8.50;99.90
29813;DHT22;16707;48.106;11.548;2023-11-18T14:32:19;8.50;99.90
29813;DHT22;16707;48.106;11.548;2023-11-18T14:34:46;8.50;99.90
29813;DHT22;16707;48.106;11.548;2023-11-18T14:37:14;8.50;99.90
29813;DHT22;16707;48.106;11.548;2023-11-18T14:39:41;8.40;99.90
29813;DHT22;16707;48.106;11.548;2023-11-18T14:42:09;8.40;99.90
29813;DHT22;16707;48.106;11.548;2023-11-18T14:44:35;8.30;99.90
29813;DHT22;16707;48.106;11.548;2023-11-18T14:47:02;8.00;99.90
29813;DHT22;16707;48.106;11.548;2023-11-18T14:49:31;7.60;99.90
29813;DHT22;16707;48.106;11.548;2023-11-18T14:51:57;7.30;99.90
29813;DHT22;16707;48.106;11.548;2023-11-18T14:54:24;7.10;99.90
29813;DHT22;16707;48.106;11.548;2023-11-18T14:56:51;6.80;99.90
29813;DHT22;16707;48.106;11.548;2023-11-18T14:59:19;6.70;99.90
29813;DHT22;16707;48.106;11.548;2023-11-18T15:01:47;6.70;99.90
29813;DHT22;16707;48.106;11.548;2023-11-18T15:04:14;6.50;99.90
29813;DHT22;16707;48.106;11.548;2023-11-18T15:06:41;6.50;99.90
29813;DHT22;16707;48.106;11.548;2023-11-18T15:09:08;6.40;99.90
29813;DHT22;16707;48.106;11.548;2023-11-18T15:11:36;6.50;99.90
29813;DHT22;16707;48.106;11.548;2023-11-18T15:14:03;6.60;99.90
29813;DHT22;16707;48.106;11.548;2023-11-18T15:16:31;6.70;99.90
29813;DHT22;16707;48.106;11.548;2023-11-18T15:18:58;6.70;99.90
29813;DHT22;16707;48.106;11.548;2023-11-18T15:21:24;6.70;99.90
29813;DHT22;16707;48.106;11.548;2023-11-18T15:23:51;6.90;99.90
29813;DHT22;16707;48.106;11.548;2023-11-18T15:26:18;6.80;99.90
29813;DHT22;16707;48.106;11.548;2023-11-18T15:28:45;6.80;99.90
29813;DHT22;16707;48.106;11.548;2023-11-18T15:31:11;6.80;99.90
29813;DHT22;16707;48.106;11.548;2023-11-18T15:33:41;6.90;99.90
29813;DHT22;16707;48.106;11.548;2023-11-18T15:36:10;6.90;99.90
29813;DHT22;16707;48.106;11.548;2023-11-18T15:38:37;6.90;99.90
29813;DHT22;16707;48.106;11.548;2023-11-18T15:41:04;6.80;99.90
29813;DHT22;16707;48.106;11.548;2023-11-18T15:43:31;6.80;99.90
29813;DHT22;16707;48.106;11.548;2023-11-18T15:45:57;6.80;99.90
29813;DHT22;16707;48.106;11.548;2023-11-18T15:48:24;6.70;99.90
29813;DHT22;16707;48.106;11.548;2023-11-18T15:50:53;6.70;99.90